page 5685 of 1004363 registered users

eBook PostsUsers

  1. 0forestton7 registered @ 2013-01-29 16:53:26, last login @ 2013-01-29 16:53:26
  2. 0advicefifth88 registered @ 2013-01-29 16:53:34, last login @ 2013-01-29 16:53:34
  3. 0outputjute1 registered @ 2013-01-29 16:54:14, last login @ 2013-01-29 16:54:14
  4. 0stopspot86 registered @ 2013-01-29 16:54:37, last login @ 2013-01-29 16:54:37
  5. 0lisarulenieru registered @ 2013-01-29 16:54:38, last login @ 2013-01-29 16:54:38
  6. 0top02quilt registered @ 2013-01-29 16:55:10, last login @ 2013-01-29 16:55:10
  7. 0silk65whip registered @ 2013-01-29 16:56:13, last login @ 2013-01-29 16:56:13
  8. 0guidevinyl5 registered @ 2013-01-29 16:56:26, last login @ 2013-01-29 16:56:26
  9. 0battledenim59 registered @ 2013-01-29 16:56:58, last login @ 2013-01-29 16:56:58
  10. 0sponge3east registered @ 2013-01-29 16:57:11, last login @ 2013-01-29 16:57:11
  11. 0ruleboot86 registered @ 2013-01-29 16:59:45, last login @ 2013-01-29 16:59:45
  12. 0year68mother registered @ 2013-01-29 16:59:57, last login @ 2013-01-29 16:59:57
  13. 0angel22 registered @ 2013-01-29 17:01:02, last login @ 2013-01-29 17:01:02
  14. 0cobweboboe4 registered @ 2013-01-29 17:01:39, last login @ 2013-01-29 17:01:39
  15. 0archtemple25 registered @ 2013-01-29 17:02:07, last login @ 2013-01-29 17:02:07
  16. 0dewuncle5 registered @ 2013-01-29 17:02:32, last login @ 2013-01-29 17:02:32
  17. 0babies65second registered @ 2013-01-29 17:03:53, last login @ 2013-01-29 17:03:53
  18. 0fontbun80 registered @ 2013-01-29 17:05:03, last login @ 2013-01-29 17:05:03
  19. 0cat0comb registered @ 2013-01-29 17:05:10, last login @ 2013-01-29 17:05:10
  20. 0death3rayon registered @ 2013-01-29 17:06:02, last login @ 2013-01-29 17:06:02
  21. 0pajama8bubble registered @ 2013-01-29 17:06:40, last login @ 2013-01-29 17:06:40
  22. 0file9aunt registered @ 2013-01-29 17:06:51, last login @ 2013-01-29 17:06:51
  23. 0atmsmell30 registered @ 2013-01-29 17:06:52, last login @ 2013-01-29 17:56:09
  24. 0avenuelead0 registered @ 2013-01-29 17:07:29, last login @ 2013-01-29 17:07:29
  25. 0handlemail90 registered @ 2013-01-29 17:07:51, last login @ 2013-01-29 17:07:51
  26. 0arrow5china registered @ 2013-01-29 17:07:54, last login @ 2013-01-29 17:44:30
  27. 0spainbranch7 registered @ 2013-01-29 17:08:57, last login @ 2013-01-29 17:41:23
  28. 0fireshrine79 registered @ 2013-01-29 17:09:56, last login @ 2013-01-29 17:09:56
  29. 0otter04congo registered @ 2013-01-29 17:11:01, last login @ 2013-01-29 17:42:29
  30. 0regretgreen3 registered @ 2013-01-29 17:12:51, last login @ 2013-01-29 17:12:51
  31. 0blue16crocus registered @ 2013-01-29 17:15:22, last login @ 2013-01-29 17:15:22
  32. 0bushalloy99 registered @ 2013-01-29 17:16:40, last login @ 2013-01-29 17:16:40
  33. 0dinghy6hawk registered @ 2013-01-29 17:16:55, last login @ 2013-01-29 17:16:55
  34. 0cup2ton registered @ 2013-01-29 17:16:59, last login @ 2013-01-29 17:16:59
  35. 0alley16chard registered @ 2013-01-29 17:17:24, last login @ 2013-01-29 17:28:14
  36. 0town27mail registered @ 2013-01-29 17:17:56, last login @ 2013-01-29 17:17:56
  37. 0jury5heart registered @ 2013-01-29 17:18:34, last login @ 2013-01-29 17:18:34
  38. 0spade6gum registered @ 2013-01-29 17:18:36, last login @ 2013-01-29 17:43:34
  39. 0water54beet registered @ 2013-01-29 17:18:43, last login @ 2013-01-29 17:18:43
  40. 0lilac95fine registered @ 2013-01-29 17:19:06, last login @ 2013-01-29 17:52:44
  41. 0slip9puffin registered @ 2013-01-29 17:20:10, last login @ 2013-01-29 17:20:10
  42. 0kevin37radar registered @ 2013-01-29 17:21:50, last login @ 2013-01-29 17:21:50
  43. 0obbptz59 registered @ 2013-01-29 17:21:59, last login @ 2013-01-29 17:21:59
  44. 0lathe9growth registered @ 2013-01-29 17:23:36, last login @ 2013-01-29 17:23:36
  45. 0organ4comb registered @ 2013-01-29 17:24:03, last login @ 2013-01-29 17:24:03
  46. 0bat8pint registered @ 2013-01-29 17:25:05, last login @ 2013-01-29 17:25:05
  47. 0tellerstart57 registered @ 2013-01-29 17:25:17, last login @ 2013-01-29 17:25:17
  48. 0bird38flight registered @ 2013-01-29 17:25:18, last login @ 2013-01-29 17:25:18
  49. 0epochiraq85 registered @ 2013-01-29 17:25:31, last login @ 2013-01-29 17:25:31
  50. 0trial59quill registered @ 2013-01-29 17:28:02, last login @ 2013-01-29 17:28:02
  51. 0rewardplate3 registered @ 2013-01-29 17:28:03, last login @ 2013-01-29 17:28:03
  52. 0fowl0minute registered @ 2013-01-29 17:28:16, last login @ 2013-01-29 17:28:16
  53. 0tire2middle registered @ 2013-01-29 17:30:02, last login @ 2013-01-29 17:30:02
  54. 0pazlomacaxayz registered @ 2013-01-29 17:31:00, last login @ 2013-01-29 17:31:00
  55. 0cheesestate7 registered @ 2013-01-29 17:32:05, last login @ 2013-01-29 17:32:05
  56. 0zippermark77 registered @ 2013-01-29 17:32:57, last login @ 2013-01-29 17:32:57
  57. 0click34dugout registered @ 2013-01-29 17:33:04, last login @ 2013-01-29 17:33:04
  58. 0lionquail6 registered @ 2013-01-29 17:33:12, last login @ 2013-01-29 17:33:12
  59. 0weasel20paint registered @ 2013-01-29 17:34:24, last login @ 2013-01-29 17:34:24
  60. 0chance1giant registered @ 2013-01-29 17:35:53, last login @ 2013-01-29 17:35:53
  61. 0pathspace88 registered @ 2013-01-29 17:37:10, last login @ 2013-01-29 17:56:47
  62. 0dogsquash97 registered @ 2013-01-29 17:38:20, last login @ 2013-01-29 17:38:20
  63. 0camerastone2 registered @ 2013-01-29 17:38:53, last login @ 2013-01-29 17:38:53
  64. 0july9nylon registered @ 2013-01-29 17:40:21, last login @ 2013-01-29 17:40:21
  65. 0dance5paul registered @ 2013-01-29 17:42:55, last login @ 2013-01-29 17:42:55
  66. 0boy19garden registered @ 2013-01-29 17:43:44, last login @ 2013-01-29 17:43:44
  67. 0tailor61plain registered @ 2013-01-29 17:43:45, last login @ 2013-01-29 17:43:45
  68. 0sandratarget4 registered @ 2013-01-29 17:43:46, last login @ 2013-01-29 17:43:46
  69. 0luteparade28 registered @ 2013-01-29 17:46:49, last login @ 2013-01-29 17:46:49
  70. 0advice6may registered @ 2013-01-29 17:47:07, last login @ 2013-01-29 17:47:07
  71. 0active5temple registered @ 2013-01-29 17:47:39, last login @ 2013-01-29 17:47:39
  72. 0dirtrod8 registered @ 2013-01-29 17:48:54, last login @ 2013-01-29 17:48:54
  73. 0plier90susan registered @ 2013-01-29 17:49:11, last login @ 2013-01-29 17:49:11
  74. 0sampan65walrus registered @ 2013-01-29 17:49:33, last login @ 2013-01-29 17:49:33
  75. 0bakerpanty2 registered @ 2013-01-29 17:50:46, last login @ 2013-01-29 17:50:46
  76. 0timerseeder8 registered @ 2013-01-29 17:53:21, last login @ 2013-01-29 17:53:21
  77. 0urukxq90 registered @ 2013-01-29 17:53:22, last login @ 2013-01-29 17:53:22
  78. 0shark26twine registered @ 2013-01-29 17:54:57, last login @ 2013-01-29 17:54:57
  79. 0fibrelarch4 registered @ 2013-01-29 17:55:03, last login @ 2013-01-29 17:55:03
  80. 0operaliquid32 registered @ 2013-01-29 17:56:43, last login @ 2013-01-29 17:56:43
  81. 0den13rifle registered @ 2013-01-29 17:57:55, last login @ 2013-01-29 17:57:55
  82. 0dryerpeak49 registered @ 2013-01-29 17:58:19, last login @ 2013-01-29 17:58:19
  83. 0cafegrouse14 registered @ 2013-01-29 17:59:53, last login @ 2013-01-29 17:59:53
  84. 0voiceseeder4 registered @ 2013-01-29 18:01:19, last login @ 2013-01-29 18:01:19
  85. 0clickwealth2 registered @ 2013-01-29 18:01:52, last login @ 2013-01-29 18:51:40
  86. 0screwvest54 registered @ 2013-01-29 18:02:17, last login @ 2013-01-29 18:02:17
  87. 0jump60oxygen registered @ 2013-01-29 18:03:49, last login @ 2013-01-29 18:03:49
  88. 0bureaustoelen1 registered @ 2013-01-29 18:04:23, last login @ 2013-01-29 18:48:23
  89. 0headnet37 registered @ 2013-01-29 18:04:45, last login @ 2013-01-29 18:04:45
  90. 0quiltlisa2 registered @ 2013-01-29 18:05:47, last login @ 2013-01-29 18:49:00
  91. 0swingwheel38 registered @ 2013-01-29 18:06:09, last login @ 2013-01-29 18:06:09
  92. 0afrojtkg registered @ 2013-01-29 18:09:43, last login @ 2013-01-29 18:09:43
  93. 0stitchcrush48 registered @ 2013-01-29 18:10:48, last login @ 2013-01-29 18:10:48
  94. 0shapesoy11 registered @ 2013-01-29 18:13:25, last login @ 2013-01-29 18:13:25
  95. 0nylon65gemini registered @ 2013-01-29 18:15:04, last login @ 2013-01-29 18:15:04
  96. 0cancer3minute registered @ 2013-01-29 18:15:44, last login @ 2013-01-29 18:15:44
  97. 0cry59rhythm registered @ 2013-01-29 18:17:27, last login @ 2013-01-29 18:17:27
  98. 0roll7tax registered @ 2013-01-29 18:17:40, last login @ 2013-01-29 18:17:40
  99. 0gamecomma7 registered @ 2013-01-29 18:20:09, last login @ 2013-01-29 18:20:09
  100. 0hoebulb57 registered @ 2013-01-29 18:20:27, last login @ 2013-01-29 18:20:27
  101. 0carbonbanana5 registered @ 2013-01-29 18:21:40, last login @ 2013-01-29 18:21:40

More...

[5695] [5694] [5693] [5692] [5691] [5690] [5689] [5688] [5687] [5686] [5685] [5684] [5683] [5682] [5681] [5680] [5679] [5678] [5677] [5676] ...[1]
Back to Top